sensor_id;sensor_type;location;lat;lon;timestamp;temperature;humidity
67899;DHT22;54699;51.796;10.956;2023-06-14T00:00:00;24.80;37.70
67899;DHT22;54699;51.796;10.956;2023-06-14T00:02:29;24.80;37.80
67899;DHT22;54699;51.796;10.956;2023-06-14T00:04:56;24.80;37.80
67899;DHT22;54699;51.796;10.956;2023-06-14T00:07:33;24.80;37.80
67899;DHT22;54699;51.796;10.956;2023-06-14T00:10:02;24.80;37.90
67899;DHT22;54699;51.796;10.956;2023-06-14T00:12:30;24.70;37.80
67899;DHT22;54699;51.796;10.956;2023-06-14T00:14:57;24.80;37.90
67899;DHT22;54699;51.796;10.956;2023-06-14T00:17:23;24.70;37.80
67899;DHT22;54699;51.796;10.956;2023-06-14T00:19:55;24.70;37.80
67899;DHT22;54699;51.796;10.956;2023-06-14T00:22:23;24.70;37.90
67899;DHT22;54699;51.796;10.956;2023-06-14T00:24:50;24.70;38.00
67899;DHT22;54699;51.796;10.956;2023-06-14T00:27:18;24.70;38.00
67899;DHT22;54699;51.796;10.956;2023-06-14T00:29:45;24.70;37.90
67899;DHT22;54699;51.796;10.956;2023-06-14T00:32:12;24.70;38.00
67899;DHT22;54699;51.796;10.956;2023-06-14T00:34:38;24.70;38.10
67899;DHT22;54699;51.796;10.956;2023-06-14T00:37:05;24.70;38.10
67899;DHT22;54699;51.796;10.956;2023-06-14T00:39:32;24.70;38.10
67899;DHT22;54699;51.796;10.956;2023-06-14T00:41:59;24.60;38.10
67899;DHT22;54699;51.796;10.956;2023-06-14T00:44:27;24.70;38.20
67899;DHT22;54699;51.796;10.956;2023-06-14T00:46:54;24.60;38.10
67899;DHT22;54699;51.796;10.956;2023-06-14T00:49:21;24.60;38.20
67899;DHT22;54699;51.796;10.956;2023-06-14T00:51:48;24.60;38.20
67899;DHT22;54699;51.796;10.956;2023-06-14T00:54:14;24.60;38.20
67899;DHT22;54699;51.796;10.956;2023-06-14T00:56:41;24.60;38.20
67899;DHT22;54699;51.796;10.956;2023-06-14T00:59:10;24.60;38.30
67899;DHT22;54699;51.796;10.956;2023-06-14T01:01:38;24.60;38.30
67899;DHT22;54699;51.796;10.956;2023-06-14T01:04:05;24.60;38.40
67899;DHT22;54699;51.796;10.956;2023-06-14T01:06:33;24.60;38.30
67899;DHT22;54699;51.796;10.956;2023-06-14T01:09:14;24.60;38.40
67899;DHT22;54699;51.796;10.956;2023-06-14T01:11:50;24.60;38.50
67899;DHT22;54699;51.796;10.956;2023-06-14T01:14:23;24.60;38.60
67899;DHT22;54699;51.796;10.956;2023-06-14T01:16:55;24.60;38.50
67899;DHT22;54699;51.796;10.956;2023-06-14T01:19:25;24.60;38.70
67899;DHT22;54699;51.796;10.956;2023-06-14T01:21:53;24.60;38.60
67899;DHT22;54699;51.796;10.956;2023-06-14T01:24:21;24.50;38.60
67899;DHT22;54699;51.796;10.956;2023-06-14T01:26:51;24.50;38.60
67899;DHT22;54699;51.796;10.956;2023-06-14T01:29:21;24.50;38.60
67899;DHT22;54699;51.796;10.956;2023-06-14T01:31:48;24.50;38.70
67899;DHT22;54699;51.796;10.956;2023-06-14T01:34:16;24.50;38.80
67899;DHT22;54699;51.796;10.956;2023-06-14T01:36:43;24.50;38.70
67899;DHT22;54699;51.796;10.956;2023-06-14T01:39:11;24.60;38.80
67899;DHT22;54699;51.796;10.956;2023-06-14T01:41:42;24.50;38.80
67899;DHT22;54699;51.796;10.956;2023-06-14T01:44:10;24.50;38.80
67899;DHT22;54699;51.796;10.956;2023-06-14T01:46:40;24.50;38.90
67899;DHT22;54699;51.796;10.956;2023-06-14T01:49:08;24.50;38.90
67899;DHT22;54699;51.796;10.956;2023-06-14T01:51:35;24.50;39.00
67899;DHT22;54699;51.796;10.956;2023-06-14T01:54:02;24.50;39.00
67899;DHT22;54699;51.796;10.956;2023-06-14T01:56:29;24.50;39.00
67899;DHT22;54699;51.796;10.956;2023-06-14T01:58:57;24.50;38.90
67899;DHT22;54699;51.796;10.956;2023-06-14T02:01:24;24.50;39.00
67899;DHT22;54699;51.796;10.956;2023-06-14T02:03:51;24.50;39.00
67899;DHT22;54699;51.796;10.956;2023-06-14T02:06:19;24.50;39.00
67899;DHT22;54699;51.796;10.956;2023-06-14T02:08:45;24.50;40.00
67899;DHT22;54699;51.796;10.956;2023-06-14T02:11:12;24.50;39.10
67899;DHT22;54699;51.796;10.956;2023-06-14T02:13:39;24.50;39.10
67899;DHT22;54699;51.796;10.956;2023-06-14T02:16:07;24.50;39.20
67899;DHT22;54699;51.796;10.956;2023-06-14T02:18:35;24.50;39.10
67899;DHT22;54699;51.796;10.956;2023-06-14T02:21:02;24.50;39.20
67899;DHT22;54699;51.796;10.956;2023-06-14T02:23:29;24.40;39.20
67899;DHT22;54699;51.796;10.956;2023-06-14T02:25:57;24.40;40.20
67899;DHT22;54699;51.796;10.956;2023-06-14T02:28:24;24.40;39.20
67899;DHT22;54699;51.796;10.956;2023-06-14T02:30:51;24.40;39.30
67899;DHT22;54699;51.796;10.956;2023-06-14T02:33:19;24.40;39.30
67899;DHT22;54699;51.796;10.956;2023-06-14T02:35:47;24.40;39.30
67899;DHT22;54699;51.796;10.956;2023-06-14T02:38:14;24.40;39.40
67899;DHT22;54699;51.796;10.956;2023-06-14T02:40:40;24.40;39.40
67899;DHT22;54699;51.796;10.956;2023-06-14T02:43:08;24.40;39.40
67899;DHT22;54699;51.796;10.956;2023-06-14T02:45:34;24.40;39.40
67899;DHT22;54699;51.796;10.956;2023-06-14T02:48:01;24.40;39.40
67899;DHT22;54699;51.796;10.956;2023-06-14T02:50:30;24.40;39.40
67899;DHT22;54699;51.796;10.956;2023-06-14T02:52:57;24.40;39.40
67899;DHT22;54699;51.796;10.956;2023-06-14T02:55:24;24.40;39.50
67899;DHT22;54699;51.796;10.956;2023-06-14T02:57:51;24.40;39.60
67899;DHT22;54699;51.796;10.956;2023-06-14T03:00:19;24.40;39.50
67899;DHT22;54699;51.796;10.956;2023-06-14T03:02:46;24.40;39.50
67899;DHT22;54699;51.796;10.956;2023-06-14T03:05:13;24.40;39.70
67899;DHT22;54699;51.796;10.956;2023-06-14T03:07:41;24.30;39.50
67899;DHT22;54699;51.796;10.956;2023-06-14T03:10:10;24.30;39.60
67899;DHT22;54699;51.796;10.956;2023-06-14T03:12:38;24.40;39.70
67899;DHT22;54699;51.796;10.956;2023-06-14T03:15:05;24.40;39.60
67899;DHT22;54699;51.796;10.956;2023-06-14T03:17:32;24.30;39.60
67899;DHT22;54699;51.796;10.956;2023-06-14T03:20:00;24.30;39.60
67899;DHT22;54699;51.796;10.956;2023-06-14T03:22:28;24.40;39.70
67899;DHT22;54699;51.796;10.956;2023-06-14T03:24:57;24.40;39.70
67899;DHT22;54699;51.796;10.956;2023-06-14T03:27:24;24.40;39.70
67899;DHT22;54699;51.796;10.956;2023-06-14T03:29:53;24.30;39.70
67899;DHT22;54699;51.796;10.956;2023-06-14T03:32:20;24.30;39.80
67899;DHT22;54699;51.796;10.956;2023-06-14T03:34:47;24.30;39.70
67899;DHT22;54699;51.796;10.956;2023-06-14T03:37:14;24.30;39.70
67899;DHT22;54699;51.796;10.956;2023-06-14T03:39:41;24.30;39.90
67899;DHT22;54699;51.796;10.956;2023-06-14T03:42:13;24.30;39.90
67899;DHT22;54699;51.796;10.956;2023-06-14T03:44:40;24.30;39.80
67899;DHT22;54699;51.796;10.956;2023-06-14T03:47:07;24.30;39.80
67899;DHT22;54699;51.796;10.956;2023-06-14T03:49:34;24.20;39.80
67899;DHT22;54699;51.796;10.956;2023-06-14T03:52:02;24.30;39.90
67899;DHT22;54699;51.796;10.956;2023-06-14T03:54:29;24.30;40.00
67899;DHT22;54699;51.796;10.956;2023-06-14T03:56:57;24.30;39.90
67899;DHT22;54699;51.796;10.956;2023-06-14T03:59:26;24.30;39.90
67899;DHT22;54699;51.796;10.956;2023-06-14T04:01:53;24.30;40.00
67899;DHT22;54699;51.796;10.956;2023-06-14T04:04:20;24.30;39.90
67899;DHT22;54699;51.796;10.956;2023-06-14T04:06:54;24.30;40.00
67899;DHT22;54699;51.796;10.956;2023-06-14T04:09:23;24.30;40.10
67899;DHT22;54699;51.796;10.956;2023-06-14T04:11:51;24.30;40.00
67899;DHT22;54699;51.796;10.956;2023-06-14T04:14:18;24.40;39.80
67899;DHT22;54699;51.796;10.956;2023-06-14T04:16:46;24.30;39.10
67899;DHT22;54699;51.796;10.956;2023-06-14T04:19:13;24.20;39.10
67899;DHT22;54699;51.796;10.956;2023-06-14T04:21:40;24.10;38.30
67899;DHT22;54699;51.796;10.956;2023-06-14T04:24:08;24.10;38.00
67899;DHT22;54699;51.796;10.956;2023-06-14T04:26:39;24.10;37.40
67899;DHT22;54699;51.796;10.956;2023-06-14T04:29:06;23.90;37.80
67899;DHT22;54699;51.796;10.956;2023-06-14T04:31:33;23.80;37.40
67899;DHT22;54699;51.796;10.956;2023-06-14T04:34:04;23.70;37.00
67899;DHT22;54699;51.796;10.956;2023-06-14T04:36:31;23.50;37.80
67899;DHT22;54699;51.796;10.956;2023-06-14T04:39:00;23.40;37.40
67899;DHT22;54699;51.796;10.956;2023-06-14T04:41:29;23.30;38.50
67899;DHT22;54699;51.796;10.956;2023-06-14T04:43:57;23.20;38.40
67899;DHT22;54699;51.796;10.956;2023-06-14T04:46:26;23.10;38.00
67899;DHT22;54699;51.796;10.956;2023-06-14T04:48:54;22.90;38.30
67899;DHT22;54699;51.796;10.956;2023-06-14T04:51:23;22.70;39.20
67899;DHT22;54699;51.796;10.956;2023-06-14T04:53:55;22.60;39.20
67899;DHT22;54699;51.796;10.956;2023-06-14T04:56:23;22.60;39.30
67899;DHT22;54699;51.796;10.956;2023-06-14T04:58:51;22.60;39.30
67899;DHT22;54699;51.796;10.956;2023-06-14T05:01:21;22.60;39.20
67899;DHT22;54699;51.796;10.956;2023-06-14T05:03:49;22.40;39.10
67899;DHT22;54699;51.796;10.956;2023-06-14T05:06:19;22.30;39.40
67899;DHT22;54699;51.796;10.956;2023-06-14T05:08:48;22.40;39.30
67899;DHT22;54699;51.796;10.956;2023-06-14T05:11:15;22.60;39.10
67899;DHT22;54699;51.796;10.956;2023-06-14T05:13:45;22.50;39.00
67899;DHT22;54699;51.796;10.956;2023-06-14T05:16:12;22.30;39.60
67899;DHT22;54699;51.796;10.956;2023-06-14T05:18:41;22.30;39.40
67899;DHT22;54699;51.796;10.956;2023-06-14T05:21:08;22.30;39.50
67899;DHT22;54699;51.796;10.956;2023-06-14T05:23:36;22.60;39.30
67899;DHT22;54699;51.796;10.956;2023-06-14T05:26:04;22.50;39.10
67899;DHT22;54699;51.796;10.956;2023-06-14T05:28:32;22.60;38.90
67899;DHT22;54699;51.796;10.956;2023-06-14T05:30:58;23.10;38.40
67899;DHT22;54699;51.796;10.956;2023-06-14T05:33:25;23.10;38.20
67899;DHT22;54699;51.796;10.956;2023-06-14T05:35:52;22.70;38.20
67899;DHT22;54699;51.796;10.956;2023-06-14T05:38:19;22.50;38.70
67899;DHT22;54699;51.796;10.956;2023-06-14T05:40:46;22.60;38.90
67899;DHT22;54699;51.796;10.956;2023-06-14T05:43:15;22.40;39.10
67899;DHT22;54699;51.796;10.956;2023-06-14T05:45:42;22.40;39.10
67899;DHT22;54699;51.796;10.956;2023-06-14T05:48:08;22.30;39.20
67899;DHT22;54699;51.796;10.956;2023-06-14T05:50:36;22.70;38.90
67899;DHT22;54699;51.796;10.956;2023-06-14T05:53:03;22.80;38.50
67899;DHT22;54699;51.796;10.956;2023-06-14T05:55:30;23.20;38.50
67899;DHT22;54699;51.796;10.956;2023-06-14T05:57:57;23.00;38.50
67899;DHT22;54699;51.796;10.956;2023-06-14T06:00:26;23.40;38.40
67899;DHT22;54699;51.796;10.956;2023-06-14T06:02:54;23.40;38.00
67899;DHT22;54699;51.796;10.956;2023-06-14T06:05:24;23.10;38.20
67899;DHT22;54699;51.796;10.956;2023-06-14T06:07:51;23.00;38.50
67899;DHT22;54699;51.796;10.956;2023-06-14T06:10:26;23.40;38.50
67899;DHT22;54699;51.796;10.956;2023-06-14T06:12:53;22.90;38.80
67899;DHT22;54699;51.796;10.956;2023-06-14T06:15:20;23.00;39.00
67899;DHT22;54699;51.796;10.956;2023-06-14T06:17:48;23.20;38.90
67899;DHT22;54699;51.796;10.956;2023-06-14T06:20:16;23.10;38.60
67899;DHT22;54699;51.796;10.956;2023-06-14T06:22:43;23.10;38.70
67899;DHT22;54699;51.796;10.956;2023-06-14T06:25:10;23.00;38.90
67899;DHT22;54699;51.796;10.956;2023-06-14T06:27:37;23.20;38.50
67899;DHT22;54699;51.796;10.956;2023-06-14T06:30:06;23.00;38.80
67899;DHT22;54699;51.796;10.956;2023-06-14T06:32:33;22.90;39.10
67899;DHT22;54699;51.796;10.956;2023-06-14T06:35:02;23.30;38.80
67899;DHT22;54699;51.796;10.956;2023-06-14T06:37:31;23.20;38.30
67899;DHT22;54699;51.796;10.956;2023-06-14T06:39:58;23.60;38.30
67899;DHT22;54699;51.796;10.956;2023-06-14T06:42:25;23.90;38.00
67899;DHT22;54699;51.796;10.956;2023-06-14T06:44:52;23.50;37.90
67899;DHT22;54699;51.796;10.956;2023-06-14T06:47:19;23.90;37.80
67899;DHT22;54699;51.796;10.956;2023-06-14T06:49:46;23.90;37.90
67899;DHT22;54699;51.796;10.956;2023-06-14T06:52:14;23.20;38.00
67899;DHT22;54699;51.796;10.956;2023-06-14T06:54:41;22.90;38.90
67899;DHT22;54699;51.796;10.956;2023-06-14T06:57:08;23.40;38.80
67899;DHT22;54699;51.796;10.956;2023-06-14T06:59:36;23.40;39.60
67899;DHT22;54699;51.796;10.956;2023-06-14T07:02:03;23.70;38.50
67899;DHT22;54699;51.796;10.956;2023-06-14T07:04:31;23.90;38.20
67899;DHT22;54699;51.796;10.956;2023-06-14T07:06:58;23.80;38.00
67899;DHT22;54699;51.796;10.956;2023-06-14T07:09:27;23.40;38.40
67899;DHT22;54699;51.796;10.956;2023-06-14T07:11:54;23.70;38.60
67899;DHT22;54699;51.796;10.956;2023-06-14T07:14:21;23.70;37.90
67899;DHT22;54699;51.796;10.956;2023-06-14T07:16:49;24.00;38.30
67899;DHT22;54699;51.796;10.956;2023-06-14T07:19:16;24.10;37.80
67899;DHT22;54699;51.796;10.956;2023-06-14T07:21:43;24.20;37.90
67899;DHT22;54699;51.796;10.956;2023-06-14T07:24:10;24.20;37.70
67899;DHT22;54699;51.796;10.956;2023-06-14T07:26:39;24.20;38.80
67899;DHT22;54699;51.796;10.956;2023-06-14T07:29:06;24.20;37.70
67899;DHT22;54699;51.796;10.956;2023-06-14T07:31:33;24.20;37.70
67899;DHT22;54699;51.796;10.956;2023-06-14T07:34:00;24.20;37.70
67899;DHT22;54699;51.796;10.956;2023-06-14T07:36:27;24.30;37.50
67899;DHT22;54699;51.796;10.956;2023-06-14T07:38:55;24.20;37.80
67899;DHT22;54699;51.796;10.956;2023-06-14T07:41:22;24.30;37.50
67899;DHT22;54699;51.796;10.956;2023-06-14T07:43:50;24.40;37.50
67899;DHT22;54699;51.796;10.956;2023-06-14T07:46:19;24.10;37.80
67899;DHT22;54699;51.796;10.956;2023-06-14T07:48:46;24.30;37.70
67899;DHT22;54699;51.796;10.956;2023-06-14T07:51:13;24.30;37.70
67899;DHT22;54699;51.796;10.956;2023-06-14T07:53:41;24.00;37.60
67899;DHT22;54699;51.796;10.956;2023-06-14T07:56:08;24.10;37.70
67899;DHT22;54699;51.796;10.956;2023-06-14T07:58:35;24.40;37.70
67899;DHT22;54699;51.796;10.956;2023-06-14T08:01:05;24.40;37.80
67899;DHT22;54699;51.796;10.956;2023-06-14T08:03:33;24.40;37.40
67899;DHT22;54699;51.796;10.956;2023-06-14T08:06:01;24.10;37.30
67899;DHT22;54699;51.796;10.956;2023-06-14T08:08:28;23.80;37.30
67899;DHT22;54699;51.796;10.956;2023-06-14T08:10:55;24.00;37.30
67899;DHT22;54699;51.796;10.956;2023-06-14T08:13:23;24.10;37.20
67899;DHT22;54699;51.796;10.956;2023-06-14T08:15:50;24.40;36.70
67899;DHT22;54699;51.796;10.956;2023-06-14T08:18:19;24.50;36.50
67899;DHT22;54699;51.796;10.956;2023-06-14T08:20:47;24.40;36.60
67899;DHT22;54699;51.796;10.956;2023-06-14T08:23:15;24.60;36.40
67899;DHT22;54699;51.796;10.956;2023-06-14T08:25:44;24.80;36.10
67899;DHT22;54699;51.796;10.956;2023-06-14T08:28:11;24.80;36.00
67899;DHT22;54699;51.796;10.956;2023-06-14T08:30:38;24.60;36.00
67899;DHT22;54699;51.796;10.956;2023-06-14T08:33:04;24.90;36.00
67899;DHT22;54699;51.796;10.956;2023-06-14T08:35:33;24.90;35.50
67899;DHT22;54699;51.796;10.956;2023-06-14T08:38:02;24.90;36.00
67899;DHT22;54699;51.796;10.956;2023-06-14T08:40:30;24.80;35.40
67899;DHT22;54699;51.796;10.956;2023-06-14T08:42:57;24.80;35.40
67899;DHT22;54699;51.796;10.956;2023-06-14T08:45:25;24.60;35.40
67899;DHT22;54699;51.796;10.956;2023-06-14T08:47:51;24.60;35.70
67899;DHT22;54699;51.796;10.956;2023-06-14T08:50:23;24.50;35.30
67899;DHT22;54699;51.796;10.956;2023-06-14T08:52:53;24.80;35.20
67899;DHT22;54699;51.796;10.956;2023-06-14T08:55:22;24.90;35.20
67899;DHT22;54699;51.796;10.956;2023-06-14T08:57:53;24.40;35.40
67899;DHT22;54699;51.796;10.956;2023-06-14T09:00:23;24.60;35.50
67899;DHT22;54699;51.796;10.956;2023-06-14T09:02:50;24.70;35.20
67899;DHT22;54699;51.796;10.956;2023-06-14T09:05:21;24.90;35.40
67899;DHT22;54699;51.796;10.956;2023-06-14T09:07:49;25.00;35.10
67899;DHT22;54699;51.796;10.956;2023-06-14T09:10:20;25.00;34.90
67899;DHT22;54699;51.796;10.956;2023-06-14T09:12:48;25.10;35.00
67899;DHT22;54699;51.796;10.956;2023-06-14T09:15:15;25.20;34.70
67899;DHT22;54699;51.796;10.956;2023-06-14T09:17:43;25.30;34.40
67899;DHT22;54699;51.796;10.956;2023-06-14T09:20:10;24.90;34.40
67899;DHT22;54699;51.796;10.956;2023-06-14T09:22:39;25.00;34.50
67899;DHT22;54699;51.796;10.956;2023-06-14T09:25:07;25.10;34.60
67899;DHT22;54699;51.796;10.956;2023-06-14T09:27:35;24.90;34.50
67899;DHT22;54699;51.796;10.956;2023-06-14T09:30:05;24.60;35.10
67899;DHT22;54699;51.796;10.956;2023-06-14T09:32:36;24.60;34.80
67899;DHT22;54699;51.796;10.956;2023-06-14T09:35:05;24.90;34.50
67899;DHT22;54699;51.796;10.956;2023-06-14T09:37:33;25.20;34.40
67899;DHT22;54699;51.796;10.956;2023-06-14T09:40:03;25.00;34.40
67899;DHT22;54699;51.796;10.956;2023-06-14T09:45:18;25.30;33.90
67899;DHT22;54699;51.796;10.956;2023-06-14T09:47:48;25.30;33.70
67899;DHT22;54699;51.796;10.956;2023-06-14T09:50:16;25.30;33.70
67899;DHT22;54699;51.796;10.956;2023-06-14T09:52:43;25.10;33.70
67899;DHT22;54699;51.796;10.956;2023-06-14T09:55:16;25.30;33.90
67899;DHT22;54699;51.796;10.956;2023-06-14T09:57:46;25.30;33.90
67899;DHT22;54699;51.796;10.956;2023-06-14T10:00:16;25.10;33.90
67899;DHT22;54699;51.796;10.956;2023-06-14T10:02:47;25.00;34.20
67899;DHT22;54699;51.796;10.956;2023-06-14T10:05:29;25.30;34.00
67899;DHT22;54699;51.796;10.956;2023-06-14T10:07:59;25.40;33.80
67899;DHT22;54699;51.796;10.956;2023-06-14T10:10:30;25.10;33.90
67899;DHT22;54699;51.796;10.956;2023-06-14T10:12:59;25.10;34.50
67899;DHT22;54699;51.796;10.956;2023-06-14T10:15:28;25.50;34.20
67899;DHT22;54699;51.796;10.956;2023-06-14T10:18:01;25.50;33.60
67899;DHT22;54699;51.796;10.956;2023-06-14T10:20:35;25.30;34.00
67899;DHT22;54699;51.796;10.956;2023-06-14T10:23:08;25.30;34.10
67899;DHT22;54699;51.796;10.956;2023-06-14T10:25:39;25.70;33.70
67899;DHT22;54699;51.796;10.956;2023-06-14T10:28:17;25.40;33.30
67899;DHT22;54699;51.796;10.956;2023-06-14T10:33:34;25.50;33.60
67899;DHT22;54699;51.796;10.956;2023-06-14T10:36:08;25.60;33.20
67899;DHT22;54699;51.796;10.956;2023-06-14T10:38:56;25.80;33.20
67899;DHT22;54699;51.796;10.956;2023-06-14T10:41:25;25.80;33.10
67899;DHT22;54699;51.796;10.956;2023-06-14T10:46:58;25.70;33.20
67899;DHT22;54699;51.796;10.956;2023-06-14T10:49:36;25.80;32.90
67899;DHT22;54699;51.796;10.956;2023-06-14T10:52:10;25.90;32.90
67899;DHT22;54699;51.796;10.956;2023-06-14T10:55:00;25.70;32.80
67899;DHT22;54699;51.796;10.956;2023-06-14T10:57:31;25.50;33.20
67899;DHT22;54699;51.796;10.956;2023-06-14T10:59:59;25.60;33.30
67899;DHT22;54699;51.796;10.956;2023-06-14T11:02:52;25.60;34.20
67899;DHT22;54699;51.796;10.956;2023-06-14T11:05:42;25.60;33.50
67899;DHT22;54699;51.796;10.956;2023-06-14T11:11:29;25.90;33.10
67899;DHT22;54699;51.796;10.956;2023-06-14T11:13:59;25.60;33.20
67899;DHT22;54699;51.796;10.956;2023-06-14T11:16:27;25.60;33.50
67899;DHT22;54699;51.796;10.956;2023-06-14T11:18:56;26.00;33.30
67899;DHT22;54699;51.796;10.956;2023-06-14T11:21:23;26.10;33.00
67899;DHT22;54699;51.796;10.956;2023-06-14T11:23:55;26.00;32.90
67899;DHT22;54699;51.796;10.956;2023-06-14T11:26:25;26.10;32.90
67899;DHT22;54699;51.796;10.956;2023-06-14T11:28:57;25.80;32.70
67899;DHT22;54699;51.796;10.956;2023-06-14T11:31:25;25.50;33.20
67899;DHT22;54699;51.796;10.956;2023-06-14T11:33:55;25.70;33.10
67899;DHT22;54699;51.796;10.956;2023-06-14T11:36:23;25.50;33.40
67899;DHT22;54699;51.796;10.956;2023-06-14T11:38:57;25.50;33.50
67899;DHT22;54699;51.796;10.956;2023-06-14T11:41:25;25.60;33.20
67899;DHT22;54699;51.796;10.956;2023-06-14T11:43:52;25.90;33.40
67899;DHT22;54699;51.796;10.956;2023-06-14T11:46:19;25.60;33.60
67899;DHT22;54699;51.796;10.956;2023-06-14T11:48:49;25.70;34.00
67899;DHT22;54699;51.796;10.956;2023-06-14T11:51:19;25.50;34.40
67899;DHT22;54699;51.796;10.956;2023-06-14T11:53:47;25.50;34.20
67899;DHT22;54699;51.796;10.956;2023-06-14T11:56:14;25.80;34.00
67899;DHT22;54699;51.796;10.956;2023-06-14T11:58:42;25.20;34.10
67899;DHT22;54699;51.796;10.956;2023-06-14T12:01:09;25.60;34.40
67899;DHT22;54699;51.796;10.956;2023-06-14T12:03:46;25.70;33.90
67899;DHT22;54699;51.796;10.956;2023-06-14T12:06:14;25.60;33.80
67899;DHT22;54699;51.796;10.956;2023-06-14T12:08:42;25.60;33.50
67899;DHT22;54699;51.796;10.956;2023-06-14T12:11:11;25.70;33.30
67899;DHT22;54699;51.796;10.956;2023-06-14T12:13:40;25.70;33.00
67899;DHT22;54699;51.796;10.956;2023-06-14T12:16:08;25.70;33.20
67899;DHT22;54699;51.796;10.956;2023-06-14T12:18:35;25.60;33.20
67899;DHT22;54699;51.796;10.956;2023-06-14T12:21:05;25.40;33.40
67899;DHT22;54699;51.796;10.956;2023-06-14T12:23:39;25.30;33.60
67899;DHT22;54699;51.796;10.956;2023-06-14T12:26:12;25.40;33.80
67899;DHT22;54699;51.796;10.956;2023-06-14T12:28:40;25.40;33.60
67899;DHT22;54699;51.796;10.956;2023-06-14T12:31:07;25.60;33.50
67899;DHT22;54699;51.796;10.956;2023-06-14T12:33:34;25.40;33.50
67899;DHT22;54699;51.796;10.956;2023-06-14T12:36:03;25.60;33.50
67899;DHT22;54699;51.796;10.956;2023-06-14T12:38:30;25.50;33.80
67899;DHT22;54699;51.796;10.956;2023-06-14T12:40:59;25.40;33.80
67899;DHT22;54699;51.796;10.956;2023-06-14T12:43:26;25.60;33.80
67899;DHT22;54699;51.796;10.956;2023-06-14T12:45:52;25.70;33.60
67899;DHT22;54699;51.796;10.956;2023-06-14T12:48:21;25.80;33.20
67899;DHT22;54699;51.796;10.956;2023-06-14T12:50:48;25.50;33.30
67899;DHT22;54699;51.796;10.956;2023-06-14T12:53:15;25.70;33.10
67899;DHT22;54699;51.796;10.956;2023-06-14T12:55:42;25.60;33.00
67899;DHT22;54699;51.796;10.956;2023-06-14T12:58:10;25.70;33.10
67899;DHT22;54699;51.796;10.956;2023-06-14T13:00:39;25.20;33.70
67899;DHT22;54699;51.796;10.956;2023-06-14T13:03:06;25.30;33.90
67899;DHT22;54699;51.796;10.956;2023-06-14T13:05:33;25.30;33.90
67899;DHT22;54699;51.796;10.956;2023-06-14T13:08:00;25.30;34.00
67899;DHT22;54699;51.796;10.956;2023-06-14T13:10:27;25.20;34.30
67899;DHT22;54699;51.796;10.956;2023-06-14T13:12:54;25.30;34.20
67899;DHT22;54699;51.796;10.956;2023-06-14T13:15:24;25.40;34.00
67899;DHT22;54699;51.796;10.956;2023-06-14T13:17:52;25.50;33.60
67899;DHT22;54699;51.796;10.956;2023-06-14T13:20:19;25.80;33.40
67899;DHT22;54699;51.796;10.956;2023-06-14T13:22:46;25.90;33.10
67899;DHT22;54699;51.796;10.956;2023-06-14T13:25:13;26.10;33.10
67899;DHT22;54699;51.796;10.956;2023-06-14T13:27:40;25.80;33.00
67899;DHT22;54699;51.796;10.956;2023-06-14T13:30:07;25.70;33.30
67899;DHT22;54699;51.796;10.956;2023-06-14T13:32:37;25.90;33.10
67899;DHT22;54699;51.796;10.956;2023-06-14T13:35:04;25.50;33.50
67899;DHT22;54699;51.796;10.956;2023-06-14T13:37:31;25.30;33.70
67899;DHT22;54699;51.796;10.956;2023-06-14T13:39:58;25.30;34.00
67899;DHT22;54699;51.796;10.956;2023-06-14T13:42:25;25.30;33.90
67899;DHT22;54699;51.796;10.956;2023-06-14T13:44:52;25.30;34.00
67899;DHT22;54699;51.796;10.956;2023-06-14T13:47:19;25.30;34.30
67899;DHT22;54699;51.796;10.956;2023-06-14T13:49:47;25.10;34.30
67899;DHT22;54699;51.796;10.956;2023-06-14T13:52:13;25.20;34.20
67899;DHT22;54699;51.796;10.956;2023-06-14T13:54:41;25.40;33.90
67899;DHT22;54699;51.796;10.956;2023-06-14T13:57:08;25.30;33.90
67899;DHT22;54699;51.796;10.956;2023-06-14T13:59:38;25.30;34.00
67899;DHT22;54699;51.796;10.956;2023-06-14T14:02:05;25.40;33.90
67899;DHT22;54699;51.796;10.956;2023-06-14T14:04:32;25.30;33.90
67899;DHT22;54699;51.796;10.956;2023-06-14T14:07:01;25.00;33.80
67899;DHT22;54699;51.796;10.956;2023-06-14T14:09:29;25.10;33.70
67899;DHT22;54699;51.796;10.956;2023-06-14T14:11:56;25.30;33.90
67899;DHT22;54699;51.796;10.956;2023-06-14T14:14:23;25.00;34.20
67899;DHT22;54699;51.796;10.956;2023-06-14T14:16:50;25.10;34.20
67899;DHT22;54699;51.796;10.956;2023-06-14T14:19:18;24.90;34.60
67899;DHT22;54699;51.796;10.956;2023-06-14T14:21:45;25.10;35.10
67899;DHT22;54699;51.796;10.956;2023-06-14T14:24:14;25.00;37.10
67899;DHT22;54699;51.796;10.956;2023-06-14T14:26:41;24.70;36.00
67899;DHT22;54699;51.796;10.956;2023-06-14T14:29:08;24.70;36.10
67899;DHT22;54699;51.796;10.956;2023-06-14T14:31:36;24.90;36.20
67899;DHT22;54699;51.796;10.956;2023-06-14T14:34:03;25.10;36.20
67899;DHT22;54699;51.796;10.956;2023-06-14T14:36:30;25.30;36.40
67899;DHT22;54699;51.796;10.956;2023-06-14T14:38:58;25.00;36.20
67899;DHT22;54699;51.796;10.956;2023-06-14T14:41:27;24.90;36.60
67899;DHT22;54699;51.796;10.956;2023-06-14T14:43:54;24.90;36.60
67899;DHT22;54699;51.796;10.956;2023-06-14T14:46:24;25.00;36.50
67899;DHT22;54699;51.796;10.956;2023-06-14T14:48:53;25.10;36.30
67899;DHT22;54699;51.796;10.956;2023-06-14T14:51:20;25.00;36.20
67899;DHT22;54699;51.796;10.956;2023-06-14T14:53:47;24.90;36.40
67899;DHT22;54699;51.796;10.956;2023-06-14T14:56:14;25.00;36.60
67899;DHT22;54699;51.796;10.956;2023-06-14T14:58:42;24.90;36.40
67899;DHT22;54699;51.796;10.956;2023-06-14T15:01:09;24.70;36.60
67899;DHT22;54699;51.796;10.956;2023-06-14T15:03:36;24.80;37.20
67899;DHT22;54699;51.796;10.956;2023-06-14T15:06:03;24.80;36.70
67899;DHT22;54699;51.796;10.956;2023-06-14T15:08:30;24.70;36.60
67899;DHT22;54699;51.796;10.956;2023-06-14T15:10:57;24.60;36.90
67899;DHT22;54699;51.796;10.956;2023-06-14T15:13:24;24.60;37.00
67899;DHT22;54699;51.796;10.956;2023-06-14T15:15:52;24.60;37.40
67899;DHT22;54699;51.796;10.956;2023-06-14T15:18:19;24.70;37.10
67899;DHT22;54699;51.796;10.956;2023-06-14T15:20:46;24.60;37.30
67899;DHT22;54699;51.796;10.956;2023-06-14T15:23:13;24.70;37.10
67899;DHT22;54699;51.796;10.956;2023-06-14T15:25:45;24.70;37.30
67899;DHT22;54699;51.796;10.956;2023-06-14T15:28:13;24.70;37.40
67899;DHT22;54699;51.796;10.956;2023-06-14T15:30:40;24.60;37.10
67899;DHT22;54699;51.796;10.956;2023-06-14T15:33:08;24.50;37.10